CheckWX is a tool to help pilots better visualize weather data.  It is not intended as a substitute for an official pre-flight weather briefing.

18:54:14 UTC

KTXK METAR
Texarkana Regional-Webb Field Airport
Texarkana, Arkansas, USA
Current

1 hour ago

KTXK 121753Z 01010G16KT 10SM CLR 01/M10 A3057 RMK AO2 SLP354 T00061100 10011 21050 58015
Observed
Nov-12 @ 17:53 UTC
Wind
  • 010° at 10 KTS
  • Gusting to 16 KTS
Visibility
10 SM
Flight Rules
VFR
Cloud Levels
  • Clear skies
Temperature
C / 34°F
Dewpoint
-10°C / 14°F
Humidity
44%
Altimeter
30.57" Hg
Pressure
1035.22 hPa
Previous

2 hours ago

KTXK 121653Z 04009KT 10SM CLR M01/M10 A3059 RMK AO2 SLP362 T10061100
Observed
Nov-12 @ 16:53 UTC
Wind
  • 040° at 9 KTS
Visibility
10 SM
Flight Rules
VFR
Cloud Levels
  • Clear skies
Temperature
-1°C / 30°F
Dewpoint
-10°C / 14°F
Humidity
51%
Altimeter
30.59" Hg
Pressure
1035.92 hPa
Previous

3 hours ago

KTXK 121553Z 04008KT 10SM CLR M02/M10 A3061 RMK AO2 SLP368 T10171100
Observed
Nov-12 @ 15:53 UTC
Wind
  • 040° at 8 KTS
Visibility
10 SM
Flight Rules
VFR
Cloud Levels
  • Clear skies
Temperature
-2°C / 28°F
Dewpoint
-10°C / 14°F
Humidity
55%
Altimeter
30.61" Hg
Pressure
1036.62 hPa